createdAt,value
2022-11-16T00:02:07.306Z,11.57
2022-11-16T00:04:34.703Z,11.77
2022-11-16T00:07:04.667Z,12.20
2022-11-16T00:09:34.394Z,11.50
2022-11-16T00:12:04.714Z,11.65
2022-11-16T00:14:34.483Z,11.75
2022-11-16T00:17:02.300Z,11.48
2022-11-16T00:19:29.607Z,11.13
2022-11-16T00:24:28.483Z,11.32
2022-11-16T00:26:56.278Z,11.63
2022-11-16T00:29:25.561Z,11.25
2022-11-16T00:31:53.745Z,10.00
2022-11-16T00:34:22.058Z,10.05
2022-11-16T00:36:49.529Z,10.10
2022-11-16T00:39:18.828Z,9.20
2022-11-16T00:41:51.897Z,9.48
2022-11-16T00:44:19.033Z,9.98
2022-11-16T00:46:46.051Z,9.90
2022-11-16T00:49:15.225Z,10.48
2022-11-16T00:51:42.429Z,10.50
2022-11-16T00:54:12.378Z,10.07
2022-11-16T00:56:40.351Z,9.48
2022-11-16T00:59:07.554Z,10.40
2022-11-16T01:01:34.869Z,10.50
2022-11-16T01:04:02.268Z,9.65
2022-11-16T01:06:29.183Z,10.65
2022-11-16T01:08:58.179Z,9.15
2022-11-16T01:11:43.682Z,10.73
2022-11-16T01:14:13.347Z,10.38
2022-11-16T01:16:43.546Z,10.73
2022-11-16T01:19:10.943Z,10.02
2022-11-16T01:24:07.035Z,11.35
2022-11-16T01:26:36.103Z,10.07
2022-11-16T01:29:04.299Z,9.50
2022-11-16T01:31:38.110Z,10.40
2022-11-16T01:34:05.579Z,9.70
2022-11-16T01:36:33.232Z,9.77
2022-11-16T01:39:01.408Z,9.27
2022-11-16T01:41:33.666Z,10.50
2022-11-16T01:44:14.917Z,11.05
2022-11-16T01:46:54.472Z,8.93
2022-11-16T01:52:01.821Z,8.50
2022-11-16T01:54:36.167Z,10.35
2022-11-16T01:57:09.105Z,10.95
2022-11-16T02:00:04.749Z,10.63
2022-11-16T02:02:41.253Z,10.85
2022-11-16T02:05:21.942Z,10.90
2022-11-16T02:08:38.789Z,11.70
2022-11-16T02:11:18.112Z,10.38
2022-11-16T02:14:00.093Z,11.77
2022-11-16T02:17:08.831Z,11.55
2022-11-16T02:20:13.275Z,11.18
2022-11-16T02:22:40.187Z,11.82
2022-11-16T02:25:30.636Z,11.82
2022-11-16T02:28:12.427Z,11.05
2022-11-16T02:30:47.276Z,11.07
2022-11-16T02:33:21.016Z,10.90
2022-11-16T02:35:52.523Z,10.40
2022-11-16T02:38:30.678Z,10.35
2022-11-16T02:41:06.607Z,10.15
2022-11-16T02:43:46.040Z,10.90
2022-11-16T02:46:19.534Z,9.90
2022-11-16T02:48:54.589Z,10.00
2022-11-16T02:51:27.470Z,10.45
2022-11-16T02:54:08.870Z,9.80
2022-11-16T02:56:46.839Z,9.98
2022-11-16T02:59:17.661Z,10.02
2022-11-16T03:02:28.299Z,9.43
2022-11-16T03:05:07.341Z,9.07
2022-11-16T03:07:55.929Z,8.95
2022-11-16T03:10:52.824Z,9.27
2022-11-16T03:13:24.175Z,8.20
2022-11-16T03:15:57.068Z,8.45
2022-11-16T03:18:29.529Z,8.40
2022-11-16T03:21:30.575Z,8.20
2022-11-16T03:23:57.717Z,8.60
2022-11-16T03:26:29.117Z,7.55
2022-11-16T03:29:03.222Z,8.23
2022-11-16T03:31:39.147Z,8.52
2022-11-16T03:34:16.205Z,8.55
2022-11-16T03:36:47.290Z,7.63
2022-11-16T03:39:22.706Z,8.35
2022-11-16T03:41:50.874Z,8.60
2022-11-16T03:44:21.346Z,7.95
2022-11-16T03:46:48.668Z,9.43
2022-11-16T03:49:20.289Z,9.48
2022-11-16T03:51:54.976Z,9.38
2022-11-16T03:54:22.869Z,8.70
2022-11-16T03:56:52.138Z,9.57
2022-11-16T03:59:19.282Z,10.05
2022-11-16T04:01:51.426Z,9.98
2022-11-16T04:04:41.906Z,10.68
2022-11-16T04:07:30.397Z,9.75
2022-11-16T04:10:15.710Z,9.80
2022-11-16T04:13:02.608Z,9.25
2022-11-16T04:18:33.922Z,8.53
2022-11-16T04:21:19.841Z,8.00
2022-11-16T04:24:08.975Z,8.25
2022-11-16T04:26:56.420Z,8.52
2022-11-16T04:29:26.497Z,9.52
2022-11-16T04:32:11.923Z,9.20
2022-11-16T04:35:02.490Z,9.48
2022-11-16T04:37:48.175Z,9.27
2022-11-16T04:40:30.671Z,9.05
2022-11-16T04:43:00.751Z,10.10
2022-11-16T04:45:53.266Z,9.45
2022-11-16T04:48:26.462Z,9.98
2022-11-16T04:50:54.642Z,9.63
2022-11-16T04:53:24.197Z,9.48
2022-11-16T04:56:00.878Z,8.80
2022-11-16T04:58:29.449Z,8.90
2022-11-16T05:00:56.375Z,8.23
2022-11-16T05:03:23.379Z,8.50
2022-11-16T05:10:51.463Z,8.52
2022-11-16T05:13:18.984Z,8.55
2022-11-16T05:15:46.692Z,8.05
2022-11-16T05:18:13.711Z,7.90
2022-11-16T05:20:59.253Z,7.30
2022-11-16T05:23:45.096Z,7.85
2022-11-16T05:26:15.016Z,7.00
2022-11-16T05:28:42.187Z,7.50
2022-11-16T05:31:15.301Z,7.30
2022-11-16T05:33:42.518Z,7.25
2022-11-16T05:36:12.696Z,7.10
2022-11-16T05:38:42.415Z,7.40
2022-11-16T05:41:11.879Z,7.72
2022-11-16T05:43:41.511Z,7.82
2022-11-16T05:46:17.087Z,6.80
2022-11-16T05:48:44.068Z,7.80
2022-11-16T05:51:11.080Z,7.15
2022-11-16T05:53:38.702Z,7.20
2022-11-16T05:56:07.203Z,8.63
2022-11-16T05:58:37.552Z,7.45
2022-11-16T06:01:05.458Z,8.07
2022-11-16T06:06:03.922Z,7.72
2022-11-16T06:08:36.664Z,6.97
2022-11-16T06:11:12.743Z,7.93
2022-11-16T06:13:45.697Z,7.30
2022-11-16T06:16:12.839Z,6.82
2022-11-16T06:18:44.875Z,7.55
2022-11-16T06:21:15.234Z,7.45
2022-11-16T06:23:47.251Z,8.30
2022-11-16T06:26:16.885Z,7.30
2022-11-16T06:28:44.769Z,8.43
2022-11-16T06:31:12.142Z,8.18
2022-11-16T06:33:41.787Z,9.82
2022-11-16T06:36:19.588Z,10.88
2022-11-16T06:38:46.922Z,10.32
2022-11-16T06:43:45.199Z,11.20
2022-11-16T06:46:16.695Z,11.98
2022-11-16T06:48:43.652Z,12.75
2022-11-16T06:51:13.220Z,10.98
2022-11-16T06:53:42.766Z,11.23
2022-11-16T06:56:13.536Z,11.80
2022-11-16T06:58:45.470Z,11.10
2022-11-16T07:01:14.458Z,10.18
2022-11-16T07:03:49.568Z,10.07
2022-11-16T07:06:18.973Z,12.45
2022-11-16T07:08:46.557Z,11.02
2022-11-16T07:11:20.388Z,9.75
2022-11-16T07:13:49.705Z,10.20
2022-11-16T07:16:17.064Z,10.13
2022-11-16T07:18:52.947Z,9.60
2022-11-16T07:21:20.156Z,9.88
2022-11-16T07:23:48.047Z,9.95
2022-11-16T07:26:24.375Z,9.63
2022-11-16T07:28:58.851Z,8.38
2022-11-16T07:31:26.145Z,9.00
2022-11-16T07:34:13.054Z,8.80
2022-11-16T07:36:54.893Z,8.77
2022-11-16T07:44:28.012Z,10.52
2022-11-16T07:47:07.374Z,9.75
2022-11-16T07:49:36.171Z,9.82
2022-11-16T07:52:13.329Z,9.07
2022-11-16T07:54:47.270Z,8.40
2022-11-16T07:57:15.513Z,9.05
2022-11-16T07:59:43.500Z,8.27
2022-11-16T08:02:11.530Z,7.80
2022-11-16T08:04:42.852Z,7.10
2022-11-16T08:07:12.418Z,9.90
2022-11-16T08:09:51.605Z,11.57
2022-11-16T08:12:20.758Z,5.10
2022-11-16T08:14:48.216Z,9.23
2022-11-16T08:17:17.567Z,9.65
2022-11-16T08:19:47.824Z,11.98
2022-11-16T08:22:16.294Z,11.73
2022-11-16T08:24:47.000Z,10.98
2022-11-16T08:27:16.970Z,7.68
2022-11-16T08:29:51.566Z,5.22
2022-11-16T08:32:18.615Z,4.68
2022-11-16T08:34:45.638Z,4.40
2022-11-16T08:37:13.352Z,4.60
2022-11-16T08:39:43.851Z,4.53
2022-11-16T08:42:13.273Z,4.40
2022-11-16T08:44:44.571Z,4.10
2022-11-16T08:47:14.330Z,4.10
2022-11-16T08:49:49.659Z,4.10
2022-11-16T08:52:19.644Z,4.20
2022-11-16T08:54:51.877Z,4.65
2022-11-16T08:57:19.726Z,4.85
2022-11-16T08:59:51.681Z,5.20
2022-11-16T09:02:25.499Z,4.80
2022-11-16T09:04:53.129Z,5.18
2022-11-16T09:07:22.950Z,4.57
2022-11-16T09:09:50.186Z,4.13
2022-11-16T09:12:20.117Z,3.47
2022-11-16T09:14:47.153Z,3.53
2022-11-16T09:17:20.312Z,3.38
2022-11-16T09:19:54.513Z,3.40
2022-11-16T09:22:25.916Z,4.78
2022-11-16T09:24:53.119Z,3.00
2022-11-16T09:27:22.334Z,3.00
2022-11-16T09:29:53.991Z,3.38
2022-11-16T09:32:21.054Z,3.63
2022-11-16T09:34:48.080Z,2.97
2022-11-16T09:37:15.373Z,2.00
2022-11-16T09:39:45.097Z,2.10
2022-11-16T09:42:17.769Z,2.22
2022-11-16T09:45:04.414Z,2.17
2022-11-16T09:47:40.512Z,2.40
2022-11-16T09:50:21.302Z,1.98
2022-11-16T09:52:51.570Z,2.10
2022-11-16T09:55:26.494Z,1.83
2022-11-16T09:57:57.054Z,4.45
2022-11-16T10:00:24.393Z,4.07
2022-11-16T10:03:16.390Z,2.40
2022-11-16T10:06:04.058Z,3.50
2022-11-16T10:08:48.835Z,3.08
2022-11-16T10:11:25.864Z,2.28
2022-11-16T10:17:04.425Z,1.50
2022-11-16T10:22:07.238Z,2.00
2022-11-16T10:24:39.280Z,1.60
2022-11-16T10:27:29.098Z,1.80
2022-11-16T10:30:15.723Z,1.45
2022-11-16T10:33:21.908Z,1.67
2022-11-16T10:35:54.208Z,2.30
2022-11-16T10:38:30.247Z,1.95
2022-11-16T10:41:04.314Z,1.52
2022-11-16T10:43:33.531Z,1.63
2022-11-16T10:46:22.228Z,1.60
2022-11-16T10:49:00.603Z,1.60
2022-11-16T10:51:27.554Z,1.63
2022-11-16T10:53:56.096Z,1.92
2022-11-16T10:56:26.052Z,1.85
2022-11-16T10:58:59.101Z,1.80
2022-11-16T11:01:43.554Z,1.90
2022-11-16T11:04:15.849Z,2.00
2022-11-16T11:06:52.365Z,1.67
2022-11-16T11:09:36.844Z,2.17
2022-11-16T11:12:31.353Z,2.60
2022-11-16T11:15:27.538Z,1.95
2022-11-16T11:18:23.448Z,2.15
2022-11-16T11:20:55.015Z,1.90
2022-11-16T11:23:27.178Z,2.10
2022-11-16T11:26:00.542Z,2.40
2022-11-16T11:28:32.608Z,1.80
2022-11-16T11:31:26.064Z,2.38
2022-11-16T11:34:01.649Z,2.00
2022-11-16T11:36:58.872Z,1.83
2022-11-16T11:39:29.928Z,2.00
2022-11-16T11:42:07.556Z,1.80
2022-11-16T11:44:49.232Z,1.70
2022-11-16T11:47:56.336Z,1.70
2022-11-16T11:50:33.643Z,1.77
2022-11-16T11:53:15.872Z,2.10
2022-11-16T11:55:46.405Z,1.80
2022-11-16T11:58:22.565Z,1.60
2022-11-16T12:01:25.015Z,1.50
2022-11-16T12:04:20.163Z,1.45
2022-11-16T12:07:08.725Z,1.75
2022-11-16T12:09:47.671Z,1.70
2022-11-16T12:12:29.874Z,2.05
2022-11-16T12:15:17.902Z,2.55
2022-11-16T12:18:09.920Z,6.03
2022-11-16T12:20:43.284Z,2.15
2022-11-16T12:23:38.823Z,1.85
2022-11-16T12:26:53.735Z,3.08
2022-11-16T12:29:30.790Z,2.47
2022-11-16T12:32:25.693Z,2.33
2022-11-16T12:35:33.827Z,2.00
2022-11-16T12:38:27.923Z,1.90
2022-11-16T12:44:04.239Z,2.00
2022-11-16T12:46:37.123Z,2.40
2022-11-16T12:49:20.527Z,1.33
2022-11-16T12:52:19.096Z,2.38
2022-11-16T12:55:25.484Z,1.80
2022-11-16T12:57:59.585Z,1.65
2022-11-16T13:00:31.923Z,3.20
2022-11-16T13:03:30.550Z,1.80
2022-11-16T13:06:03.335Z,1.70
2022-11-16T13:08:49.889Z,1.42
2022-11-16T13:11:40.187Z,3.17
2022-11-16T13:14:16.851Z,1.80
2022-11-16T13:16:45.621Z,1.70
2022-11-16T13:19:18.103Z,1.70
2022-11-16T13:22:17.211Z,2.05
2022-11-16T13:24:59.780Z,1.63
2022-11-16T13:27:36.138Z,1.80
2022-11-16T13:30:17.116Z,2.10
2022-11-16T13:32:56.218Z,2.00
2022-11-16T13:35:25.518Z,1.80
2022-11-16T13:37:54.605Z,3.25
2022-11-16T13:40:29.933Z,2.08
2022-11-16T13:43:12.095Z,1.60
2022-11-16T13:45:50.127Z,1.63
2022-11-16T13:48:37.728Z,1.73
2022-11-16T13:51:08.378Z,1.60
2022-11-16T13:56:51.514Z,1.70
2022-11-16T13:59:31.364Z,1.75
2022-11-16T14:02:04.539Z,4.85
2022-11-16T14:05:01.580Z,1.52
2022-11-16T14:07:47.464Z,2.05
2022-11-16T14:10:35.907Z,2.30
2022-11-16T14:13:27.520Z,2.38
2022-11-16T14:16:22.645Z,2.00
2022-11-16T14:19:02.110Z,2.33
2022-11-16T14:22:04.109Z,1.77
2022-11-16T14:24:55.555Z,1.90
2022-11-16T14:28:08.722Z,1.92
2022-11-16T14:31:12.195Z,2.45
2022-11-16T14:33:39.499Z,2.70
2022-11-16T14:36:09.857Z,1.90
2022-11-16T14:38:42.737Z,2.30
2022-11-16T14:41:28.662Z,2.33
2022-11-16T14:43:59.458Z,2.00
2022-11-16T14:46:30.380Z,6.40
2022-11-16T14:49:00.860Z,2.53
2022-11-16T14:51:37.953Z,1.90
2022-11-16T14:54:28.569Z,1.80
2022-11-16T14:57:02.508Z,2.13
2022-11-16T14:59:36.597Z,1.88
2022-11-16T15:02:16.189Z,2.05
2022-11-16T15:04:43.477Z,1.90
2022-11-16T15:07:16.478Z,1.90
2022-11-16T15:09:50.462Z,1.98
2022-11-16T15:12:39.264Z,2.10
2022-11-16T15:15:11.690Z,1.92
2022-11-16T15:17:44.011Z,2.20
2022-11-16T15:20:16.630Z,2.40
2022-11-16T15:22:46.406Z,2.65
2022-11-16T15:25:41.798Z,2.88
2022-11-16T15:28:29.786Z,3.42
2022-11-16T15:31:05.603Z,3.85
2022-11-16T15:33:39.142Z,4.78
2022-11-16T15:36:30.835Z,4.60
2022-11-16T15:39:00.558Z,4.05
2022-11-16T15:41:29.332Z,3.28
2022-11-16T15:44:13.883Z,3.20
2022-11-16T15:46:45.131Z,3.20
2022-11-16T15:49:41.831Z,5.35
2022-11-16T15:54:56.686Z,3.47
2022-11-16T15:57:26.117Z,4.10
2022-11-16T15:59:59.716Z,3.10
2022-11-16T16:02:30.420Z,3.25
2022-11-16T16:04:57.738Z,3.70
2022-11-16T16:10:13.419Z,4.35
2022-11-16T16:12:55.846Z,4.00
2022-11-16T16:15:29.814Z,3.50
2022-11-16T16:17:58.769Z,3.95
2022-11-16T16:20:31.337Z,3.72
2022-11-16T16:23:15.261Z,3.38
2022-11-16T16:25:47.508Z,3.22
2022-11-16T16:28:19.436Z,3.67
2022-11-16T16:30:46.752Z,3.90
2022-11-16T16:35:49.825Z,3.70
2022-11-16T16:38:19.050Z,3.33
2022-11-16T16:40:48.394Z,3.33
2022-11-16T16:43:15.332Z,3.38
2022-11-16T16:45:45.476Z,3.03
2022-11-16T16:48:12.816Z,3.00
2022-11-16T16:53:06.695Z,3.35
2022-11-16T16:55:37.871Z,3.10
2022-11-16T16:58:05.869Z,2.83
2022-11-16T17:00:33.083Z,3.78
2022-11-16T17:03:02.527Z,3.10
2022-11-16T17:05:34.007Z,2.72
2022-11-16T17:08:01.768Z,3.20
2022-11-16T17:10:28.740Z,8.10
2022-11-16T17:12:56.717Z,3.30
2022-11-16T17:15:24.427Z,6.07
2022-11-16T17:17:53.809Z,7.50
2022-11-16T17:20:23.904Z,9.45
2022-11-16T17:22:51.047Z,10.07
2022-11-16T17:25:20.886Z,3.60
2022-11-16T17:27:48.003Z,3.30
2022-11-16T17:30:19.814Z,3.03
2022-11-16T17:32:48.872Z,3.60
2022-11-16T17:35:15.834Z,3.33
2022-11-16T17:37:45.032Z,3.65
2022-11-16T17:40:12.528Z,9.50
2022-11-16T17:42:39.445Z,10.27
2022-11-16T17:45:09.208Z,12.00
2022-11-16T17:47:36.181Z,11.85
2022-11-16T17:50:06.182Z,71.97
2022-11-16T17:52:35.534Z,15.02
2022-11-16T17:55:05.124Z,7.43
2022-11-16T17:59:59.645Z,8.55
2022-11-16T18:02:28.789Z,8.93
2022-11-16T18:04:59.934Z,6.68
2022-11-16T18:07:27.391Z,7.28
2022-11-16T18:09:54.598Z,7.68
2022-11-16T18:12:23.788Z,10.18
2022-11-16T18:15:21.379Z,10.35
2022-11-16T18:20:05.347Z,7.85
2022-11-16T18:22:32.872Z,6.57
2022-11-16T18:25:03.602Z,6.22
2022-11-16T18:27:32.873Z,6.30
2022-11-16T18:29:59.907Z,5.80
2022-11-16T18:32:27.007Z,4.65
2022-11-16T18:34:56.024Z,4.70
2022-11-16T18:37:23.170Z,4.63
2022-11-16T18:39:52.263Z,15.48
2022-11-16T18:42:21.324Z,7.85
2022-11-16T18:44:51.392Z,5.10
2022-11-16T18:47:18.387Z,4.57
2022-11-16T18:49:47.408Z,3.88
2022-11-16T18:52:14.456Z,7.53
2022-11-16T18:54:43.584Z,4.82
2022-11-16T18:57:10.500Z,5.30
2022-11-16T18:59:41.822Z,4.93
2022-11-16T19:02:12.512Z,5.30
2022-11-16T19:04:41.630Z,5.60
2022-11-16T19:07:10.791Z,7.40
2022-11-16T19:09:40.296Z,6.95
2022-11-16T19:12:18.697Z,7.97
2022-11-16T19:14:51.499Z,7.53
2022-11-16T19:17:24.870Z,5.70
2022-11-16T19:19:51.755Z,5.28
2022-11-16T19:22:19.722Z,5.15
2022-11-16T19:24:50.920Z,7.95
2022-11-16T19:27:18.001Z,5.47
2022-11-16T19:29:47.097Z,6.18
2022-11-16T19:32:18.655Z,5.57
2022-11-16T19:34:45.699Z,5.53
2022-11-16T19:37:15.073Z,5.68
2022-11-16T19:39:41.943Z,6.85
2022-11-16T19:42:08.984Z,8.85
2022-11-16T19:44:35.952Z,8.70
2022-11-16T19:47:03.075Z,9.68
2022-11-16T19:49:29.990Z,12.35
2022-11-16T19:51:59.779Z,17.90
2022-11-16T19:54:26.775Z,10.05
2022-11-16T19:56:55.331Z,8.27
2022-11-16T19:59:24.851Z,6.13
2022-11-16T20:01:51.885Z,5.82
2022-11-16T20:04:21.097Z,7.50
2022-11-16T20:06:50.729Z,6.75
2022-11-16T20:09:17.864Z,5.97
2022-11-16T20:11:44.987Z,6.25
2022-11-16T20:14:12.421Z,6.15
2022-11-16T20:16:41.973Z,6.00
2022-11-16T20:19:11.094Z,6.43
2022-11-16T20:21:44.592Z,6.18
2022-11-16T20:24:14.438Z,21.27
2022-11-16T20:26:47.041Z,10.95
2022-11-16T20:29:18.600Z,7.45
2022-11-16T20:31:46.389Z,10.73
2022-11-16T20:34:15.685Z,7.57
2022-11-16T20:36:45.697Z,9.25
2022-11-16T20:39:16.935Z,9.20
2022-11-16T20:41:45.390Z,7.00
2022-11-16T20:44:18.426Z,7.10
2022-11-16T20:46:50.773Z,6.78
2022-11-16T20:49:17.711Z,7.82
2022-11-16T20:51:47.649Z,8.80
2022-11-16T20:54:15.360Z,6.72
2022-11-16T20:56:42.503Z,8.20
2022-11-16T20:59:11.752Z,9.60
2022-11-16T21:01:38.811Z,9.82
2022-11-16T21:04:06.635Z,9.60
2022-11-16T21:06:38.882Z,10.10
2022-11-16T21:09:10.908Z,9.32
2022-11-16T21:11:59.037Z,10.70
2022-11-16T21:14:26.314Z,9.90
2022-11-16T21:19:22.784Z,9.40
2022-11-16T21:21:52.189Z,9.90
2022-11-16T21:24:19.117Z,10.48
2022-11-16T21:26:48.391Z,9.48
2022-11-16T21:29:17.494Z,10.57
2022-11-16T21:31:44.419Z,9.50
2022-11-16T21:34:11.370Z,10.25
2022-11-16T21:36:38.559Z,9.32
2022-11-16T21:39:10.712Z,8.75
2022-11-16T21:41:37.806Z,8.60
2022-11-16T21:44:05.000Z,8.82
2022-11-16T21:46:37.820Z,10.15
2022-11-16T21:49:05.142Z,8.52
2022-11-16T21:53:59.360Z,11.02
2022-11-16T21:56:28.918Z,8.95
2022-11-16T21:58:58.132Z,8.15
2022-11-16T22:01:47.603Z,7.03
2022-11-16T22:04:33.423Z,8.20
2022-11-16T22:07:30.020Z,7.75
2022-11-16T22:09:57.314Z,7.47
2022-11-16T22:12:28.585Z,7.55
2022-11-16T22:14:56.043Z,8.00
2022-11-16T22:19:56.132Z,7.88
2022-11-16T22:22:23.284Z,10.10
2022-11-16T22:24:53.375Z,11.20
2022-11-16T22:27:20.504Z,10.57
2022-11-16T22:29:52.300Z,8.75
2022-11-16T22:32:19.271Z,8.63
2022-11-16T22:34:46.191Z,10.52
2022-11-16T22:37:13.278Z,9.70
2022-11-16T22:39:40.219Z,7.55
2022-11-16T22:42:07.503Z,6.53
2022-11-16T22:44:34.368Z,6.13
2022-11-16T22:47:01.487Z,6.65
2022-11-16T22:49:28.386Z,5.95
2022-11-16T22:51:55.509Z,5.40
2022-11-16T22:54:28.582Z,5.40
2022-11-16T22:56:58.351Z,6.15
2022-11-16T22:59:25.334Z,5.15
2022-11-16T23:01:52.256Z,5.53
2022-11-16T23:04:19.219Z,5.22
2022-11-16T23:06:47.510Z,5.97
2022-11-16T23:09:14.456Z,6.72
2022-11-16T23:11:59.772Z,8.38
2022-11-16T23:14:45.236Z,7.80
2022-11-16T23:17:12.124Z,8.27
2022-11-16T23:19:57.847Z,9.10
2022-11-16T23:22:45.744Z,8.07
2022-11-16T23:25:31.420Z,7.60
2022-11-16T23:28:04.462Z,8.38
2022-11-16T23:30:31.792Z,8.32
2022-11-16T23:33:01.226Z,8.18
2022-11-16T23:35:28.161Z,9.18
2022-11-16T23:38:03.726Z,9.18
2022-11-16T23:40:36.694Z,8.60
2022-11-16T23:43:22.077Z,8.60
2022-11-16T23:45:49.822Z,7.95
2022-11-16T23:48:18.316Z,8.30
2022-11-16T23:50:46.325Z,7.38
2022-11-16T23:53:16.766Z,8.00
2022-11-16T23:55:43.688Z,8.07
2022-11-16T23:58:15.031Z,7.68
